sensor_id;sensor_type;location;lat;lon;timestamp;P1;durP1;ratioP1;P2;durP2;ratioP2
72037;SDS011;59900;50.788;12.904;2023-12-04T00:00:03;12.23;;;6.33;;
72037;SDS011;59900;50.788;12.904;2023-12-04T00:02:29;13.75;;;5.18;;
72037;SDS011;59900;50.788;12.904;2023-12-04T00:04:55;9.90;;;5.03;;
72037;SDS011;59900;50.788;12.904;2023-12-04T00:07:20;14.87;;;6.17;;
72037;SDS011;59900;50.788;12.904;2023-12-04T00:09:46;12.83;;;4.63;;
72037;SDS011;59900;50.788;12.904;2023-12-04T00:12:11;12.07;;;6.33;;
72037;SDS011;59900;50.788;12.904;2023-12-04T00:14:36;13.53;;;6.10;;
72037;SDS011;59900;50.788;12.904;2023-12-04T00:17:01;11.57;;;6.30;;
72037;SDS011;59900;50.788;12.904;2023-12-04T00:19:27;11.70;;;5.67;;
72037;SDS011;59900;50.788;12.904;2023-12-04T00:21:52;11.90;;;5.03;;
72037;SDS011;59900;50.788;12.904;2023-12-04T00:24:17;10.00;;;4.68;;
72037;SDS011;59900;50.788;12.904;2023-12-04T00:26:43;10.10;;;5.10;;
72037;SDS011;59900;50.788;12.904;2023-12-04T00:29:08;9.97;;;4.70;;
72037;SDS011;59900;50.788;12.904;2023-12-04T00:31:33;9.57;;;4.77;;
72037;SDS011;59900;50.788;12.904;2023-12-04T00:33:59;11.53;;;5.10;;
72037;SDS011;59900;50.788;12.904;2023-12-04T00:36:24;10.33;;;4.80;;
72037;SDS011;59900;50.788;12.904;2023-12-04T00:38:49;12.27;;;5.57;;
72037;SDS011;59900;50.788;12.904;2023-12-04T00:41:15;10.83;;;4.77;;
72037;SDS011;59900;50.788;12.904;2023-12-04T00:43:40;11.77;;;5.73;;
72037;SDS011;59900;50.788;12.904;2023-12-04T00:46:05;11.97;;;5.97;;
72037;SDS011;59900;50.788;12.904;2023-12-04T00:48:30;11.97;;;5.70;;
72037;SDS011;59900;50.788;12.904;2023-12-04T00:50:57;11.02;;;4.85;;
72037;SDS011;59900;50.788;12.904;2023-12-04T00:53:22;13.05;;;5.30;;
72037;SDS011;59900;50.788;12.904;2023-12-04T00:55:47;11.20;;;5.30;;
72037;SDS011;59900;50.788;12.904;2023-12-04T00:58:13;12.00;;;5.03;;
72037;SDS011;59900;50.788;12.904;2023-12-04T01:00:38;9.30;;;4.53;;
72037;SDS011;59900;50.788;12.904;2023-12-04T01:03:03;10.57;;;4.70;;
72037;SDS011;59900;50.788;12.904;2023-12-04T01:05:29;11.37;;;4.97;;
72037;SDS011;59900;50.788;12.904;2023-12-04T01:07:54;10.50;;;4.53;;
72037;SDS011;59900;50.788;12.904;2023-12-04T01:10:19;12.87;;;4.50;;
72037;SDS011;59900;50.788;12.904;2023-12-04T01:12:45;10.93;;;5.05;;
72037;SDS011;59900;50.788;12.904;2023-12-04T01:15:10;11.20;;;4.50;;
72037;SDS011;59900;50.788;12.904;2023-12-04T01:17:35;9.23;;;5.17;;
72037;SDS011;59900;50.788;12.904;2023-12-04T01:20:00;10.13;;;4.90;;
72037;SDS011;59900;50.788;12.904;2023-12-04T01:22:26;12.60;;;5.33;;
72037;SDS011;59900;50.788;12.904;2023-12-04T01:24:51;11.57;;;4.70;;
72037;SDS011;59900;50.788;12.904;2023-12-04T01:27:16;9.90;;;4.70;;
72037;SDS011;59900;50.788;12.904;2023-12-04T01:29:41;11.30;;;5.80;;
72037;SDS011;59900;50.788;12.904;2023-12-04T01:32:06;12.37;;;5.80;;
72037;SDS011;59900;50.788;12.904;2023-12-04T01:34:32;12.23;;;4.87;;
72037;SDS011;59900;50.788;12.904;2023-12-04T01:36:57;10.73;;;5.27;;
72037;SDS011;59900;50.788;12.904;2023-12-04T01:39:22;9.77;;;5.47;;
72037;SDS011;59900;50.788;12.904;2023-12-04T01:41:48;11.83;;;4.90;;
72037;SDS011;59900;50.788;12.904;2023-12-04T01:44:13;9.83;;;5.00;;
72037;SDS011;59900;50.788;12.904;2023-12-04T01:46:38;12.00;;;4.50;;
72037;SDS011;59900;50.788;12.904;2023-12-04T01:49:03;8.57;;;4.27;;
72037;SDS011;59900;50.788;12.904;2023-12-04T01:51:32;8.65;;;4.35;;
72037;SDS011;59900;50.788;12.904;2023-12-04T01:53:58;9.10;;;4.10;;
72037;SDS011;59900;50.788;12.904;2023-12-04T01:56:25;9.27;;;4.35;;
72037;SDS011;59900;50.788;12.904;2023-12-04T01:58:50;7.63;;;4.03;;
72037;SDS011;59900;50.788;12.904;2023-12-04T02:01:16;8.43;;;3.43;;
72037;SDS011;59900;50.788;12.904;2023-12-04T02:03:44;8.50;;;4.07;;
72037;SDS011;59900;50.788;12.904;2023-12-04T02:06:10;6.80;;;3.83;;
72037;SDS011;59900;50.788;12.904;2023-12-04T02:08:37;7.97;;;3.80;;
72037;SDS011;59900;50.788;12.904;2023-12-04T02:11:02;8.23;;;3.87;;
72037;SDS011;59900;50.788;12.904;2023-12-04T02:13:27;7.73;;;4.00;;
72037;SDS011;59900;50.788;12.904;2023-12-04T02:15:53;7.20;;;3.80;;
72037;SDS011;59900;50.788;12.904;2023-12-04T02:18:19;8.18;;;3.45;;
72037;SDS011;59900;50.788;12.904;2023-12-04T02:20:45;7.30;;;3.78;;
72037;SDS011;59900;50.788;12.904;2023-12-04T02:23:10;7.90;;;3.73;;
72037;SDS011;59900;50.788;12.904;2023-12-04T02:25:36;6.87;;;3.43;;
72037;SDS011;59900;50.788;12.904;2023-12-04T02:28:01;6.70;;;3.47;;
72037;SDS011;59900;50.788;12.904;2023-12-04T02:30:31;7.60;;;4.18;;
72037;SDS011;59900;50.788;12.904;2023-12-04T02:32:58;8.45;;;3.88;;
72037;SDS011;59900;50.788;12.904;2023-12-04T02:35:26;8.82;;;4.10;;
72037;SDS011;59900;50.788;12.904;2023-12-04T02:37:54;7.88;;;3.78;;
72037;SDS011;59900;50.788;12.904;2023-12-04T02:40:20;9.88;;;4.07;;
72037;SDS011;59900;50.788;12.904;2023-12-04T02:42:46;6.87;;;4.20;;
72037;SDS011;59900;50.788;12.904;2023-12-04T02:45:11;10.32;;;4.10;;
72037;SDS011;59900;50.788;12.904;2023-12-04T02:47:36;7.97;;;3.53;;
72037;SDS011;59900;50.788;12.904;2023-12-04T02:50:02;7.83;;;3.87;;
72037;SDS011;59900;50.788;12.904;2023-12-04T02:52:27;8.00;;;3.77;;
72037;SDS011;59900;50.788;12.904;2023-12-04T02:54:52;5.43;;;3.13;;
72037;SDS011;59900;50.788;12.904;2023-12-04T02:57:17;5.40;;;2.97;;
72037;SDS011;59900;50.788;12.904;2023-12-04T02:59:43;8.37;;;3.47;;
72037;SDS011;59900;50.788;12.904;2023-12-04T03:02:08;7.43;;;3.77;;
72037;SDS011;59900;50.788;12.904;2023-12-04T03:04:34;7.90;;;3.47;;
72037;SDS011;59900;50.788;12.904;2023-12-04T03:06:59;7.20;;;3.40;;
72037;SDS011;59900;50.788;12.904;2023-12-04T03:09:25;6.90;;;3.27;;
72037;SDS011;59900;50.788;12.904;2023-12-04T03:11:50;8.40;;;3.87;;
72037;SDS011;59900;50.788;12.904;2023-12-04T03:14:16;6.90;;;3.58;;
72037;SDS011;59900;50.788;12.904;2023-12-04T03:16:41;6.83;;;4.20;;
72037;SDS011;59900;50.788;12.904;2023-12-04T03:19:07;7.03;;;3.40;;
72037;SDS011;59900;50.788;12.904;2023-12-04T03:21:32;7.17;;;3.33;;
72037;SDS011;59900;50.788;12.904;2023-12-04T03:23:57;13.90;;;3.13;;
72037;SDS011;59900;50.788;12.904;2023-12-04T03:26:22;6.33;;;4.00;;
72037;SDS011;59900;50.788;12.904;2023-12-04T03:28:48;4.83;;;2.67;;
72037;SDS011;59900;50.788;12.904;2023-12-04T03:31:13;5.83;;;3.40;;
72037;SDS011;59900;50.788;12.904;2023-12-04T03:33:38;6.33;;;3.47;;
72037;SDS011;59900;50.788;12.904;2023-12-04T03:36:04;5.97;;;3.20;;
72037;SDS011;59900;50.788;12.904;2023-12-04T03:38:29;5.68;;;3.03;;
72037;SDS011;59900;50.788;12.904;2023-12-04T03:40:55;5.80;;;3.20;;
72037;SDS011;59900;50.788;12.904;2023-12-04T03:43:20;7.53;;;3.50;;
72037;SDS011;59900;50.788;12.904;2023-12-04T03:45:45;6.97;;;4.00;;
72037;SDS011;59900;50.788;12.904;2023-12-04T03:48:10;4.93;;;2.50;;
72037;SDS011;59900;50.788;12.904;2023-12-04T03:50:36;5.83;;;2.70;;
72037;SDS011;59900;50.788;12.904;2023-12-04T03:53:01;5.37;;;3.20;;
72037;SDS011;59900;50.788;12.904;2023-12-04T03:55:27;4.78;;;2.70;;
72037;SDS011;59900;50.788;12.904;2023-12-04T03:57:52;5.00;;;3.10;;
72037;SDS011;59900;50.788;12.904;2023-12-04T04:00:18;5.85;;;2.90;;
72037;SDS011;59900;50.788;12.904;2023-12-04T04:02:44;5.87;;;2.63;;
72037;SDS011;59900;50.788;12.904;2023-12-04T04:05:09;5.50;;;3.00;;
72037;SDS011;59900;50.788;12.904;2023-12-04T04:07:34;5.30;;;3.00;;
72037;SDS011;59900;50.788;12.904;2023-12-04T04:10:00;5.95;;;2.90;;
72037;SDS011;59900;50.788;12.904;2023-12-04T04:12:26;6.93;;;2.78;;
72037;SDS011;59900;50.788;12.904;2023-12-04T04:14:52;5.43;;;2.83;;
72037;SDS011;59900;50.788;12.904;2023-12-04T04:17:17;5.80;;;2.90;;
72037;SDS011;59900;50.788;12.904;2023-12-04T04:19:42;5.47;;;2.57;;
72037;SDS011;59900;50.788;12.904;2023-12-04T04:22:07;5.90;;;3.40;;
72037;SDS011;59900;50.788;12.904;2023-12-04T04:24:33;4.63;;;2.30;;
72037;SDS011;59900;50.788;12.904;2023-12-04T04:26:59;6.35;;;3.08;;
72037;SDS011;59900;50.788;12.904;2023-12-04T04:29:24;7.10;;;2.97;;
72037;SDS011;59900;50.788;12.904;2023-12-04T04:31:49;4.67;;;2.60;;
72037;SDS011;59900;50.788;12.904;2023-12-04T04:34:14;7.07;;;3.20;;
72037;SDS011;59900;50.788;12.904;2023-12-04T04:36:40;4.40;;;2.67;;
72037;SDS011;59900;50.788;12.904;2023-12-04T04:39:05;5.90;;;2.90;;
72037;SDS011;59900;50.788;12.904;2023-12-04T04:41:31;6.05;;;2.90;;
72037;SDS011;59900;50.788;12.904;2023-12-04T04:43:56;5.63;;;3.17;;
72037;SDS011;59900;50.788;12.904;2023-12-04T04:46:22;7.13;;;3.40;;
72037;SDS011;59900;50.788;12.904;2023-12-04T04:48:47;6.10;;;2.77;;
72037;SDS011;59900;50.788;12.904;2023-12-04T04:51:12;6.17;;;2.80;;
72037;SDS011;59900;50.788;12.904;2023-12-04T04:53:38;5.53;;;2.93;;
72037;SDS011;59900;50.788;12.904;2023-12-04T04:56:03;6.80;;;3.10;;
72037;SDS011;59900;50.788;12.904;2023-12-04T04:58:29;7.10;;;3.17;;
72037;SDS011;59900;50.788;12.904;2023-12-04T05:00:54;5.50;;;3.03;;
72037;SDS011;59900;50.788;12.904;2023-12-04T05:03:19;5.37;;;2.60;;
72037;SDS011;59900;50.788;12.904;2023-12-04T05:05:45;5.50;;;3.20;;
72037;SDS011;59900;50.788;12.904;2023-12-04T05:08:10;6.00;;;3.10;;
72037;SDS011;59900;50.788;12.904;2023-12-04T05:10:35;9.10;;;3.20;;
72037;SDS011;59900;50.788;12.904;2023-12-04T05:13:00;5.17;;;3.53;;
72037;SDS011;59900;50.788;12.904;2023-12-04T05:15:26;5.15;;;2.90;;
72037;SDS011;59900;50.788;12.904;2023-12-04T05:17:51;6.00;;;3.40;;
72037;SDS011;59900;50.788;12.904;2023-12-04T05:20:16;6.63;;;3.70;;
72037;SDS011;59900;50.788;12.904;2023-12-04T05:22:42;5.97;;;3.20;;
72037;SDS011;59900;50.788;12.904;2023-12-04T05:25:07;6.37;;;3.07;;
72037;SDS011;59900;50.788;12.904;2023-12-04T05:27:32;5.77;;;3.33;;
72037;SDS011;59900;50.788;12.904;2023-12-04T05:29:58;6.53;;;3.00;;
72037;SDS011;59900;50.788;12.904;2023-12-04T05:32:23;5.80;;;3.10;;
72037;SDS011;59900;50.788;12.904;2023-12-04T05:34:48;5.67;;;2.83;;
72037;SDS011;59900;50.788;12.904;2023-12-04T05:37:13;5.83;;;2.63;;
72037;SDS011;59900;50.788;12.904;2023-12-04T05:39:39;5.63;;;3.00;;
72037;SDS011;59900;50.788;12.904;2023-12-04T05:42:04;4.82;;;2.75;;
72037;SDS011;59900;50.788;12.904;2023-12-04T05:44:30;4.97;;;3.10;;
72037;SDS011;59900;50.788;12.904;2023-12-04T05:46:56;5.07;;;2.85;;
72037;SDS011;59900;50.788;12.904;2023-12-04T05:49:22;3.93;;;2.30;;
72037;SDS011;59900;50.788;12.904;2023-12-04T05:51:47;4.07;;;2.03;;
72037;SDS011;59900;50.788;12.904;2023-12-04T05:54:12;5.47;;;2.60;;
72037;SDS011;59900;50.788;12.904;2023-12-04T05:56:37;3.60;;;1.73;;
72037;SDS011;59900;50.788;12.904;2023-12-04T05:59:03;3.07;;;2.07;;
72037;SDS011;59900;50.788;12.904;2023-12-04T06:01:29;3.95;;;2.00;;
72037;SDS011;59900;50.788;12.904;2023-12-04T06:03:54;2.77;;;1.97;;
72037;SDS011;59900;50.788;12.904;2023-12-04T06:06:19;2.90;;;2.10;;
72037;SDS011;59900;50.788;12.904;2023-12-04T06:08:44;3.00;;;1.93;;
72037;SDS011;59900;50.788;12.904;2023-12-04T06:11:11;3.40;;;2.00;;
72037;SDS011;59900;50.788;12.904;2023-12-04T06:13:37;3.30;;;1.80;;
72037;SDS011;59900;50.788;12.904;2023-12-04T06:16:02;4.27;;;2.17;;
72037;SDS011;59900;50.788;12.904;2023-12-04T06:18:28;3.97;;;2.22;;
72037;SDS011;59900;50.788;12.904;2023-12-04T06:20:53;3.77;;;2.07;;
72037;SDS011;59900;50.788;12.904;2023-12-04T06:23:18;4.00;;;2.40;;
72037;SDS011;59900;50.788;12.904;2023-12-04T06:25:44;3.77;;;1.83;;
72037;SDS011;59900;50.788;12.904;2023-12-04T06:28:09;5.00;;;2.20;;
72037;SDS011;59900;50.788;12.904;2023-12-04T06:30:35;4.80;;;2.70;;
72037;SDS011;59900;50.788;12.904;2023-12-04T06:33:00;4.60;;;2.90;;
72037;SDS011;59900;50.788;12.904;2023-12-04T06:35:26;4.93;;;2.20;;
72037;SDS011;59900;50.788;12.904;2023-12-04T06:37:53;3.87;;;2.10;;
72037;SDS011;59900;50.788;12.904;2023-12-04T06:40:19;3.75;;;2.35;;
72037;SDS011;59900;50.788;12.904;2023-12-04T06:42:44;7.07;;;2.53;;
72037;SDS011;59900;50.788;12.904;2023-12-04T06:45:10;3.90;;;2.30;;
72037;SDS011;59900;50.788;12.904;2023-12-04T06:47:35;5.30;;;2.20;;
72037;SDS011;59900;50.788;12.904;2023-12-04T06:50:02;3.97;;;1.95;;
72037;SDS011;59900;50.788;12.904;2023-12-04T06:52:27;3.30;;;2.10;;
72037;SDS011;59900;50.788;12.904;2023-12-04T06:54:52;5.10;;;1.87;;
72037;SDS011;59900;50.788;12.904;2023-12-04T06:57:17;3.37;;;1.90;;
72037;SDS011;59900;50.788;12.904;2023-12-04T06:59:43;3.67;;;2.00;;
72037;SDS011;59900;50.788;12.904;2023-12-04T07:02:08;3.83;;;2.07;;
72037;SDS011;59900;50.788;12.904;2023-12-04T07:04:33;3.67;;;1.97;;
72037;SDS011;59900;50.788;12.904;2023-12-04T07:06:59;4.55;;;2.58;;
72037;SDS011;59900;50.788;12.904;2023-12-04T07:09:29;4.80;;;2.08;;
72037;SDS011;59900;50.788;12.904;2023-12-04T07:11:55;3.45;;;1.83;;
72037;SDS011;59900;50.788;12.904;2023-12-04T07:14:20;4.37;;;2.23;;
72037;SDS011;59900;50.788;12.904;2023-12-04T07:16:46;4.10;;;2.47;;
72037;SDS011;59900;50.788;12.904;2023-12-04T07:19:11;5.20;;;2.37;;
72037;SDS011;59900;50.788;12.904;2023-12-04T07:21:37;4.57;;;2.97;;
72037;SDS011;59900;50.788;12.904;2023-12-04T07:24:02;5.55;;;2.30;;
72037;SDS011;59900;50.788;12.904;2023-12-04T07:26:27;3.72;;;2.17;;
72037;SDS011;59900;50.788;12.904;2023-12-04T07:28:53;4.70;;;2.50;;
72037;SDS011;59900;50.788;12.904;2023-12-04T07:31:18;5.10;;;2.77;;
72037;SDS011;59900;50.788;12.904;2023-12-04T07:33:44;4.17;;;2.10;;
72037;SDS011;59900;50.788;12.904;2023-12-04T07:36:09;3.90;;;2.00;;
72037;SDS011;59900;50.788;12.904;2023-12-04T07:38:34;4.35;;;2.10;;
72037;SDS011;59900;50.788;12.904;2023-12-04T07:40:59;6.03;;;2.50;;
72037;SDS011;59900;50.788;12.904;2023-12-04T07:43:25;5.00;;;2.53;;
72037;SDS011;59900;50.788;12.904;2023-12-04T07:45:50;4.70;;;2.23;;
72037;SDS011;59900;50.788;12.904;2023-12-04T07:48:15;5.83;;;2.67;;
72037;SDS011;59900;50.788;12.904;2023-12-04T07:50:41;5.20;;;2.50;;
72037;SDS011;59900;50.788;12.904;2023-12-04T07:53:07;5.80;;;2.90;;
72037;SDS011;59900;50.788;12.904;2023-12-04T07:55:36;6.07;;;2.70;;
72037;SDS011;59900;50.788;12.904;2023-12-04T07:58:02;5.77;;;2.73;;
72037;SDS011;59900;50.788;12.904;2023-12-04T08:00:27;4.97;;;2.97;;
72037;SDS011;59900;50.788;12.904;2023-12-04T08:02:52;4.80;;;2.67;;
72037;SDS011;59900;50.788;12.904;2023-12-04T08:05:18;5.27;;;2.43;;
72037;SDS011;59900;50.788;12.904;2023-12-04T08:07:43;7.23;;;2.93;;
72037;SDS011;59900;50.788;12.904;2023-12-04T08:10:09;6.80;;;3.10;;
72037;SDS011;59900;50.788;12.904;2023-12-04T08:12:35;5.10;;;2.63;;
72037;SDS011;59900;50.788;12.904;2023-12-04T08:15:00;5.23;;;2.77;;
72037;SDS011;59900;50.788;12.904;2023-12-04T08:17:26;5.20;;;2.70;;
72037;SDS011;59900;50.788;12.904;2023-12-04T08:19:52;5.97;;;2.70;;
72037;SDS011;59900;50.788;12.904;2023-12-04T08:22:17;5.33;;;2.57;;
72037;SDS011;59900;50.788;12.904;2023-12-04T08:24:42;5.20;;;2.40;;
72037;SDS011;59900;50.788;12.904;2023-12-04T08:27:07;5.83;;;3.10;;
72037;SDS011;59900;50.788;12.904;2023-12-04T08:29:33;5.83;;;2.20;;
72037;SDS011;59900;50.788;12.904;2023-12-04T08:31:58;4.13;;;2.03;;
72037;SDS011;59900;50.788;12.904;2023-12-04T08:34:23;5.37;;;2.57;;
72037;SDS011;59900;50.788;12.904;2023-12-04T08:36:48;3.87;;;2.17;;
72037;SDS011;59900;50.788;12.904;2023-12-04T08:39:14;4.97;;;2.30;;
72037;SDS011;59900;50.788;12.904;2023-12-04T08:41:39;4.33;;;2.07;;
72037;SDS011;59900;50.788;12.904;2023-12-04T08:44:04;5.70;;;2.93;;
72037;SDS011;59900;50.788;12.904;2023-12-04T08:46:29;5.93;;;2.97;;
72037;SDS011;59900;50.788;12.904;2023-12-04T08:48:55;4.13;;;2.57;;
72037;SDS011;59900;50.788;12.904;2023-12-04T08:51:20;5.50;;;3.17;;
72037;SDS011;59900;50.788;12.904;2023-12-04T08:53:45;4.80;;;2.30;;
72037;SDS011;59900;50.788;12.904;2023-12-04T08:56:11;5.07;;;2.00;;
72037;SDS011;59900;50.788;12.904;2023-12-04T08:58:36;4.57;;;2.60;;
72037;SDS011;59900;50.788;12.904;2023-12-04T09:01:02;5.38;;;2.63;;
72037;SDS011;59900;50.788;12.904;2023-12-04T09:03:28;5.03;;;2.53;;
72037;SDS011;59900;50.788;12.904;2023-12-04T09:05:54;5.60;;;2.83;;
72037;SDS011;59900;50.788;12.904;2023-12-04T09:08:20;6.53;;;2.90;;
72037;SDS011;59900;50.788;12.904;2023-12-04T09:10:47;7.03;;;3.38;;
72037;SDS011;59900;50.788;12.904;2023-12-04T09:13:13;5.03;;;2.77;;
72037;SDS011;59900;50.788;12.904;2023-12-04T09:15:39;5.15;;;2.65;;
72037;SDS011;59900;50.788;12.904;2023-12-04T09:18:05;5.50;;;2.27;;
72037;SDS011;59900;50.788;12.904;2023-12-04T09:20:30;5.90;;;2.40;;
72037;SDS011;59900;50.788;12.904;2023-12-04T09:22:55;5.03;;;2.60;;
72037;SDS011;59900;50.788;12.904;2023-12-04T09:25:20;6.27;;;2.40;;
72037;SDS011;59900;50.788;12.904;2023-12-04T09:27:46;5.37;;;2.67;;
72037;SDS011;59900;50.788;12.904;2023-12-04T09:30:11;5.20;;;2.53;;
72037;SDS011;59900;50.788;12.904;2023-12-04T09:32:36;5.20;;;2.47;;
72037;SDS011;59900;50.788;12.904;2023-12-04T09:35:02;4.87;;;2.40;;
72037;SDS011;59900;50.788;12.904;2023-12-04T09:37:27;6.30;;;3.03;;
72037;SDS011;59900;50.788;12.904;2023-12-04T09:39:52;6.17;;;3.07;;
72037;SDS011;59900;50.788;12.904;2023-12-04T09:42:18;8.03;;;2.90;;
72037;SDS011;59900;50.788;12.904;2023-12-04T09:44:44;6.47;;;2.50;;
72037;SDS011;59900;50.788;12.904;2023-12-04T09:47:14;5.20;;;2.37;;
72037;SDS011;59900;50.788;12.904;2023-12-04T09:49:42;5.95;;;2.92;;
72037;SDS011;59900;50.788;12.904;2023-12-04T09:52:09;5.95;;;2.45;;
72037;SDS011;59900;50.788;12.904;2023-12-04T09:54:35;6.60;;;3.20;;
72037;SDS011;59900;50.788;12.904;2023-12-04T09:57:01;6.50;;;2.60;;
72037;SDS011;59900;50.788;12.904;2023-12-04T09:59:28;5.53;;;2.67;;
72037;SDS011;59900;50.788;12.904;2023-12-04T10:01:54;7.90;;;3.40;;
72037;SDS011;59900;50.788;12.904;2023-12-04T10:04:20;5.47;;;2.80;;
72037;SDS011;59900;50.788;12.904;2023-12-04T10:06:48;6.40;;;3.13;;
72037;SDS011;59900;50.788;12.904;2023-12-04T10:09:16;6.68;;;2.42;;
72037;SDS011;59900;50.788;12.904;2023-12-04T10:11:42;6.30;;;2.85;;
72037;SDS011;59900;50.788;12.904;2023-12-04T10:14:17;4.95;;;2.83;;
72037;SDS011;59900;50.788;12.904;2023-12-04T10:16:44;6.07;;;2.85;;
72037;SDS011;59900;50.788;12.904;2023-12-04T10:21:43;4.90;;;2.45;;
72037;SDS011;59900;50.788;12.904;2023-12-04T10:24:09;5.18;;;2.70;;
72037;SDS011;59900;50.788;12.904;2023-12-04T10:26:35;5.10;;;2.67;;
72037;SDS011;59900;50.788;12.904;2023-12-04T10:29:01;6.97;;;3.35;;
72037;SDS011;59900;50.788;12.904;2023-12-04T10:31:33;4.93;;;2.30;;
72037;SDS011;59900;50.788;12.904;2023-12-04T10:33:59;5.03;;;2.92;;
72037;SDS011;59900;50.788;12.904;2023-12-04T10:36:25;5.53;;;3.20;;
72037;SDS011;59900;50.788;12.904;2023-12-04T10:38:59;5.63;;;2.93;;
72037;SDS011;59900;50.788;12.904;2023-12-04T10:41:25;7.87;;;3.17;;
72037;SDS011;59900;50.788;12.904;2023-12-04T10:43:51;4.45;;;2.42;;
72037;SDS011;59900;50.788;12.904;2023-12-04T10:46:16;5.47;;;2.60;;
72037;SDS011;59900;50.788;12.904;2023-12-04T10:48:44;6.68;;;2.65;;
72037;SDS011;59900;50.788;12.904;2023-12-04T10:51:10;5.27;;;2.40;;
72037;SDS011;59900;50.788;12.904;2023-12-04T10:53:37;5.15;;;2.55;;
72037;SDS011;59900;50.788;12.904;2023-12-04T10:56:02;5.47;;;2.50;;
72037;SDS011;59900;50.788;12.904;2023-12-04T10:58:28;4.60;;;2.63;;
72037;SDS011;59900;50.788;12.904;2023-12-04T11:00:54;5.87;;;3.00;;
72037;SDS011;59900;50.788;12.904;2023-12-04T11:03:25;5.45;;;2.60;;
72037;SDS011;59900;50.788;12.904;2023-12-04T11:05:58;5.85;;;2.55;;
72037;SDS011;59900;50.788;12.904;2023-12-04T11:08:25;8.13;;;3.85;;
72037;SDS011;59900;50.788;12.904;2023-12-04T11:11:12;6.65;;;3.22;;
72037;SDS011;59900;50.788;12.904;2023-12-04T11:13:45;6.90;;;2.83;;
72037;SDS011;59900;50.788;12.904;2023-12-04T11:18:56;6.97;;;3.45;;
72037;SDS011;59900;50.788;12.904;2023-12-04T11:21:27;6.35;;;3.53;;
72037;SDS011;59900;50.788;12.904;2023-12-04T11:23:54;8.88;;;3.50;;
72037;SDS011;59900;50.788;12.904;2023-12-04T11:26:23;6.77;;;3.47;;
72037;SDS011;59900;50.788;12.904;2023-12-04T11:28:50;7.60;;;2.97;;
72037;SDS011;59900;50.788;12.904;2023-12-04T11:31:16;6.57;;;2.92;;
72037;SDS011;59900;50.788;12.904;2023-12-04T11:33:41;6.37;;;3.07;;
72037;SDS011;59900;50.788;12.904;2023-12-04T11:36:13;9.27;;;2.93;;
72037;SDS011;59900;50.788;12.904;2023-12-04T11:38:43;6.63;;;3.28;;
72037;SDS011;59900;50.788;12.904;2023-12-04T11:41:23;6.78;;;3.20;;
72037;SDS011;59900;50.788;12.904;2023-12-04T11:43:50;6.72;;;3.10;;
72037;SDS011;59900;50.788;12.904;2023-12-04T11:46:19;8.05;;;3.20;;
72037;SDS011;59900;50.788;12.904;2023-12-04T11:48:48;6.90;;;3.03;;
72037;SDS011;59900;50.788;12.904;2023-12-04T11:51:14;7.88;;;3.10;;
72037;SDS011;59900;50.788;12.904;2023-12-04T11:54:00;6.47;;;3.20;;
72037;SDS011;59900;50.788;12.904;2023-12-04T11:56:25;6.40;;;2.80;;
72037;SDS011;59900;50.788;12.904;2023-12-04T11:58:50;5.73;;;2.77;;
72037;SDS011;59900;50.788;12.904;2023-12-04T12:01:19;5.90;;;3.30;;
72037;SDS011;59900;50.788;12.904;2023-12-04T12:03:45;6.18;;;2.40;;
72037;SDS011;59900;50.788;12.904;2023-12-04T12:06:15;7.50;;;3.37;;
72037;SDS011;59900;50.788;12.904;2023-12-04T12:08:40;7.17;;;2.23;;
72037;SDS011;59900;50.788;12.904;2023-12-04T12:11:05;7.23;;;2.50;;
72037;SDS011;59900;50.788;12.904;2023-12-04T12:13:31;5.68;;;2.55;;
72037;SDS011;59900;50.788;12.904;2023-12-04T12:15:56;5.47;;;2.87;;
72037;SDS011;59900;50.788;12.904;2023-12-04T12:18:23;5.30;;;2.10;;
72037;SDS011;59900;50.788;12.904;2023-12-04T12:20:48;5.27;;;2.27;;
72037;SDS011;59900;50.788;12.904;2023-12-04T12:23:14;5.63;;;2.35;;
72037;SDS011;59900;50.788;12.904;2023-12-04T12:25:40;4.77;;;2.53;;
72037;SDS011;59900;50.788;12.904;2023-12-04T12:28:05;6.90;;;2.53;;
72037;SDS011;59900;50.788;12.904;2023-12-04T12:30:30;5.33;;;2.57;;
72037;SDS011;59900;50.788;12.904;2023-12-04T12:32:55;5.25;;;2.90;;
72037;SDS011;59900;50.788;12.904;2023-12-04T12:35:21;6.17;;;2.20;;
72037;SDS011;59900;50.788;12.904;2023-12-04T12:37:46;6.03;;;2.67;;
72037;SDS011;59900;50.788;12.904;2023-12-04T12:40:11;5.77;;;2.30;;
72037;SDS011;59900;50.788;12.904;2023-12-04T12:42:37;5.67;;;2.43;;
72037;SDS011;59900;50.788;12.904;2023-12-04T12:45:09;4.68;;;2.10;;
72037;SDS011;59900;50.788;12.904;2023-12-04T12:47:36;5.18;;;2.47;;
72037;SDS011;59900;50.788;12.904;2023-12-04T12:50:01;5.20;;;2.60;;
72037;SDS011;59900;50.788;12.904;2023-12-04T12:52:27;4.18;;;2.13;;
72037;SDS011;59900;50.788;12.904;2023-12-04T12:54:53;5.33;;;3.10;;
72037;SDS011;59900;50.788;12.904;2023-12-04T12:57:18;5.30;;;2.43;;
72037;SDS011;59900;50.788;12.904;2023-12-04T12:59:43;4.50;;;2.43;;
72037;SDS011;59900;50.788;12.904;2023-12-04T13:02:09;4.47;;;1.90;;
72037;SDS011;59900;50.788;12.904;2023-12-04T13:04:39;5.50;;;2.43;;
72037;SDS011;59900;50.788;12.904;2023-12-04T13:07:05;5.35;;;2.95;;
72037;SDS011;59900;50.788;12.904;2023-12-04T13:09:32;5.30;;;1.90;;
72037;SDS011;59900;50.788;12.904;2023-12-04T13:12:00;5.17;;;2.07;;
72037;SDS011;59900;50.788;12.904;2023-12-04T13:14:26;4.05;;;1.92;;
72037;SDS011;59900;50.788;12.904;2023-12-04T13:16:51;6.20;;;2.83;;
72037;SDS011;59900;50.788;12.904;2023-12-04T13:19:16;5.47;;;2.27;;
72037;SDS011;59900;50.788;12.904;2023-12-04T13:21:42;4.90;;;2.60;;
72037;SDS011;59900;50.788;12.904;2023-12-04T13:24:08;5.70;;;2.90;;
72037;SDS011;59900;50.788;12.904;2023-12-04T13:26:34;6.05;;;2.55;;
72037;SDS011;59900;50.788;12.904;2023-12-04T13:28:59;6.13;;;2.70;;
72037;SDS011;59900;50.788;12.904;2023-12-04T13:31:25;6.10;;;3.07;;
72037;SDS011;59900;50.788;12.904;2023-12-04T13:33:50;5.87;;;2.97;;
72037;SDS011;59900;50.788;12.904;2023-12-04T13:36:15;5.63;;;3.00;;
72037;SDS011;59900;50.788;12.904;2023-12-04T13:38:40;6.47;;;2.93;;
72037;SDS011;59900;50.788;12.904;2023-12-04T13:41:06;5.97;;;2.57;;
72037;SDS011;59900;50.788;12.904;2023-12-04T13:43:54;6.90;;;2.47;;
72037;SDS011;59900;50.788;12.904;2023-12-04T13:46:19;5.68;;;2.15;;
72037;SDS011;59900;50.788;12.904;2023-12-04T13:48:45;5.13;;;2.50;;
72037;SDS011;59900;50.788;12.904;2023-12-04T13:51:11;6.03;;;3.07;;
72037;SDS011;59900;50.788;12.904;2023-12-04T13:53:37;5.13;;;2.40;;
72037;SDS011;59900;50.788;12.904;2023-12-04T13:56:14;6.20;;;2.75;;
72037;SDS011;59900;50.788;12.904;2023-12-04T13:58:45;6.05;;;2.70;;
72037;SDS011;59900;50.788;12.904;2023-12-04T14:01:11;5.45;;;2.47;;
72037;SDS011;59900;50.788;12.904;2023-12-04T14:03:45;7.30;;;2.87;;
72037;SDS011;59900;50.788;12.904;2023-12-04T14:06:10;4.57;;;2.30;;
72037;SDS011;59900;50.788;12.904;2023-12-04T14:08:36;6.80;;;3.30;;
72037;SDS011;59900;50.788;12.904;2023-12-04T14:11:02;4.97;;;2.60;;
72037;SDS011;59900;50.788;12.904;2023-12-04T14:13:28;7.50;;;2.70;;
72037;SDS011;59900;50.788;12.904;2023-12-04T14:15:53;6.50;;;2.87;;
72037;SDS011;59900;50.788;12.904;2023-12-04T14:18:19;5.35;;;3.03;;
72037;SDS011;59900;50.788;12.904;2023-12-04T14:20:44;7.93;;;2.83;;
72037;SDS011;59900;50.788;12.904;2023-12-04T14:23:10;6.30;;;3.07;;
72037;SDS011;59900;50.788;12.904;2023-12-04T14:25:35;8.13;;;2.67;;
72037;SDS011;59900;50.788;12.904;2023-12-04T14:28:00;6.93;;;3.53;;
72037;SDS011;59900;50.788;12.904;2023-12-04T14:30:27;7.47;;;3.08;;